sensor_id;sensor_type;location;lat;lon;timestamp;P1;durP1;ratioP1;P2;durP2;ratioP2
76745;SDS011;65671;49.976;20.038;2023-04-09T00:01:04;56.55;;;28.35;;
76745;SDS011;65671;49.976;20.038;2023-04-09T00:03:31;57.80;;;28.90;;
76745;SDS011;65671;49.976;20.038;2023-04-09T00:05:57;56.30;;;29.52;;
76745;SDS011;65671;49.976;20.038;2023-04-09T00:08:24;54.65;;;28.52;;
76745;SDS011;65671;49.976;20.038;2023-04-09T00:10:50;56.03;;;28.05;;
76745;SDS011;65671;49.976;20.038;2023-04-09T00:13:16;54.17;;;27.42;;
76745;SDS011;65671;49.976;20.038;2023-04-09T00:15:42;54.05;;;27.35;;
76745;SDS011;65671;49.976;20.038;2023-04-09T00:18:08;54.78;;;27.52;;
76745;SDS011;65671;49.976;20.038;2023-04-09T00:20:33;52.45;;;26.98;;
76745;SDS011;65671;49.976;20.038;2023-04-09T00:22:59;53.63;;;26.23;;
76745;SDS011;65671;49.976;20.038;2023-04-09T00:25:24;50.45;;;26.70;;
76745;SDS011;65671;49.976;20.038;2023-04-09T00:27:50;48.58;;;26.17;;
76745;SDS011;65671;49.976;20.038;2023-04-09T00:30:16;50.90;;;26.08;;
76745;SDS011;65671;49.976;20.038;2023-04-09T00:32:41;49.35;;;26.48;;
76745;SDS011;65671;49.976;20.038;2023-04-09T00:35:07;54.47;;;27.02;;
76745;SDS011;65671;49.976;20.038;2023-04-09T00:37:33;49.63;;;26.38;;
76745;SDS011;65671;49.976;20.038;2023-04-09T00:39:59;48.85;;;25.60;;
76745;SDS011;65671;49.976;20.038;2023-04-09T00:42:25;50.20;;;25.08;;
76745;SDS011;65671;49.976;20.038;2023-04-09T00:44:51;46.80;;;24.92;;
76745;SDS011;65671;49.976;20.038;2023-04-09T00:47:16;49.88;;;26.17;;
76745;SDS011;65671;49.976;20.038;2023-04-09T00:49:43;53.08;;;25.63;;
76745;SDS011;65671;49.976;20.038;2023-04-09T00:52:08;58.95;;;28.95;;
76745;SDS011;65671;49.976;20.038;2023-04-09T00:54:34;52.85;;;25.83;;
76745;SDS011;65671;49.976;20.038;2023-04-09T00:57:00;54.88;;;26.77;;
76745;SDS011;65671;49.976;20.038;2023-04-09T00:59:26;47.35;;;25.38;;
76745;SDS011;65671;49.976;20.038;2023-04-09T01:01:52;50.85;;;26.83;;
76745;SDS011;65671;49.976;20.038;2023-04-09T01:04:18;52.58;;;26.88;;
76745;SDS011;65671;49.976;20.038;2023-04-09T01:09:27;47.15;;;26.42;;
76745;SDS011;65671;49.976;20.038;2023-04-09T01:12:05;51.00;;;26.38;;
76745;SDS011;65671;49.976;20.038;2023-04-09T01:14:58;47.75;;;24.58;;
76745;SDS011;65671;49.976;20.038;2023-04-09T01:17:32;50.45;;;26.60;;
76745;SDS011;65671;49.976;20.038;2023-04-09T01:30:49;47.50;;;25.38;;
76745;SDS011;65671;49.976;20.038;2023-04-09T01:33:17;49.53;;;25.38;;
76745;SDS011;65671;49.976;20.038;2023-04-09T01:35:45;50.75;;;26.10;;
76745;SDS011;65671;49.976;20.038;2023-04-09T01:38:12;47.47;;;25.88;;
76745;SDS011;65671;49.976;20.038;2023-04-09T01:40:39;58.22;;;26.88;;
76745;SDS011;65671;49.976;20.038;2023-04-09T01:43:06;52.38;;;26.70;;
76745;SDS011;65671;49.976;20.038;2023-04-09T01:45:33;55.38;;;28.90;;
76745;SDS011;65671;49.976;20.038;2023-04-09T01:47:59;57.10;;;28.17;;
76745;SDS011;65671;49.976;20.038;2023-04-09T01:50:26;57.80;;;29.80;;
76745;SDS011;65671;49.976;20.038;2023-04-09T01:52:51;65.00;;;30.92;;
76745;SDS011;65671;49.976;20.038;2023-04-09T01:55:17;62.58;;;30.65;;
76745;SDS011;65671;49.976;20.038;2023-04-09T01:57:43;56.95;;;29.70;;
76745;SDS011;65671;49.976;20.038;2023-04-09T02:00:08;57.17;;;29.00;;
76745;SDS011;65671;49.976;20.038;2023-04-09T02:03:19;62.45;;;31.25;;
76745;SDS011;65671;49.976;20.038;2023-04-09T02:06:00;60.72;;;29.98;;
76745;SDS011;65671;49.976;20.038;2023-04-09T02:08:36;58.85;;;29.27;;
76745;SDS011;65671;49.976;20.038;2023-04-09T02:11:03;61.60;;;32.60;;
76745;SDS011;65671;49.976;20.038;2023-04-09T02:13:31;58.72;;;31.17;;
76745;SDS011;65671;49.976;20.038;2023-04-09T02:15:59;63.22;;;31.10;;
76745;SDS011;65671;49.976;20.038;2023-04-09T02:18:27;59.95;;;31.20;;
76745;SDS011;65671;49.976;20.038;2023-04-09T02:20:54;58.65;;;30.48;;
76745;SDS011;65671;49.976;20.038;2023-04-09T02:23:21;55.38;;;29.33;;
76745;SDS011;65671;49.976;20.038;2023-04-09T02:25:48;56.20;;;29.05;;
76745;SDS011;65671;49.976;20.038;2023-04-09T02:28:15;56.85;;;28.42;;
76745;SDS011;65671;49.976;20.038;2023-04-09T02:30:41;54.60;;;27.25;;
76745;SDS011;65671;49.976;20.038;2023-04-09T02:33:07;54.75;;;26.70;;
76745;SDS011;65671;49.976;20.038;2023-04-09T02:35:32;48.33;;;24.40;;
76745;SDS011;65671;49.976;20.038;2023-04-09T02:37:58;51.35;;;25.33;;
76745;SDS011;65671;49.976;20.038;2023-04-09T02:40:23;48.97;;;25.58;;
76745;SDS011;65671;49.976;20.038;2023-04-09T02:42:50;45.65;;;23.58;;
76745;SDS011;65671;49.976;20.038;2023-04-09T02:45:16;45.10;;;23.75;;
76745;SDS011;65671;49.976;20.038;2023-04-09T02:47:42;44.17;;;22.35;;
76745;SDS011;65671;49.976;20.038;2023-04-09T02:50:08;46.60;;;22.40;;
76745;SDS011;65671;49.976;20.038;2023-04-09T02:52:34;44.58;;;22.67;;
76745;SDS011;65671;49.976;20.038;2023-04-09T02:55:00;43.58;;;22.20;;
76745;SDS011;65671;49.976;20.038;2023-04-09T02:57:25;44.58;;;23.65;;
76745;SDS011;65671;49.976;20.038;2023-04-09T02:59:51;44.53;;;24.00;;
76745;SDS011;65671;49.976;20.038;2023-04-09T03:02:17;45.28;;;23.30;;
76745;SDS011;65671;49.976;20.038;2023-04-09T03:04:42;47.22;;;24.88;;
76745;SDS011;65671;49.976;20.038;2023-04-09T03:07:08;41.92;;;22.65;;
76745;SDS011;65671;49.976;20.038;2023-04-09T03:09:33;48.15;;;23.27;;
76745;SDS011;65671;49.976;20.038;2023-04-09T03:11:59;47.90;;;24.23;;
76745;SDS011;65671;49.976;20.038;2023-04-09T03:14:26;46.83;;;23.77;;
76745;SDS011;65671;49.976;20.038;2023-04-09T03:16:52;49.33;;;24.58;;
76745;SDS011;65671;49.976;20.038;2023-04-09T03:19:17;50.35;;;25.50;;
76745;SDS011;65671;49.976;20.038;2023-04-09T03:21:43;48.75;;;23.70;;
76745;SDS011;65671;49.976;20.038;2023-04-09T03:24:09;42.45;;;23.25;;
76745;SDS011;65671;49.976;20.038;2023-04-09T03:26:34;48.53;;;24.42;;
76745;SDS011;65671;49.976;20.038;2023-04-09T03:29:01;49.50;;;26.08;;
76745;SDS011;65671;49.976;20.038;2023-04-09T03:31:28;52.15;;;24.83;;
76745;SDS011;65671;49.976;20.038;2023-04-09T03:33:53;46.85;;;25.35;;
76745;SDS011;65671;49.976;20.038;2023-04-09T03:36:19;46.03;;;25.10;;
76745;SDS011;65671;49.976;20.038;2023-04-09T03:38:44;47.15;;;24.55;;
76745;SDS011;65671;49.976;20.038;2023-04-09T03:41:10;43.20;;;23.60;;
76745;SDS011;65671;49.976;20.038;2023-04-09T03:43:35;47.22;;;24.85;;
76745;SDS011;65671;49.976;20.038;2023-04-09T03:46:01;43.42;;;22.88;;
76745;SDS011;65671;49.976;20.038;2023-04-09T03:48:44;44.70;;;24.17;;
76745;SDS011;65671;49.976;20.038;2023-04-09T03:51:10;47.42;;;26.33;;
76745;SDS011;65671;49.976;20.038;2023-04-09T03:53:37;49.00;;;25.23;;
76745;SDS011;65671;49.976;20.038;2023-04-09T03:56:03;54.05;;;26.08;;
76745;SDS011;65671;49.976;20.038;2023-04-09T03:58:29;51.13;;;26.65;;
76745;SDS011;65671;49.976;20.038;2023-04-09T04:00:55;55.08;;;28.30;;
76745;SDS011;65671;49.976;20.038;2023-04-09T04:03:20;51.97;;;26.83;;
76745;SDS011;65671;49.976;20.038;2023-04-09T04:05:46;54.53;;;27.27;;
76745;SDS011;65671;49.976;20.038;2023-04-09T04:08:11;52.25;;;27.48;;
76745;SDS011;65671;49.976;20.038;2023-04-09T04:10:37;49.53;;;25.13;;
76745;SDS011;65671;49.976;20.038;2023-04-09T04:13:02;52.95;;;28.00;;
76745;SDS011;65671;49.976;20.038;2023-04-09T04:15:28;56.08;;;29.20;;
76745;SDS011;65671;49.976;20.038;2023-04-09T04:17:53;57.13;;;28.02;;
76745;SDS011;65671;49.976;20.038;2023-04-09T04:20:19;60.20;;;31.88;;
76745;SDS011;65671;49.976;20.038;2023-04-09T04:22:45;58.63;;;30.17;;
76745;SDS011;65671;49.976;20.038;2023-04-09T04:25:10;59.03;;;30.83;;
76745;SDS011;65671;49.976;20.038;2023-04-09T04:27:36;66.28;;;33.53;;
76745;SDS011;65671;49.976;20.038;2023-04-09T04:30:02;61.10;;;31.05;;
76745;SDS011;65671;49.976;20.038;2023-04-09T04:32:28;65.88;;;31.55;;
76745;SDS011;65671;49.976;20.038;2023-04-09T04:34:53;61.47;;;31.20;;
76745;SDS011;65671;49.976;20.038;2023-04-09T04:37:19;59.33;;;31.63;;
76745;SDS011;65671;49.976;20.038;2023-04-09T04:39:45;53.38;;;29.25;;
76745;SDS011;65671;49.976;20.038;2023-04-09T04:42:10;58.40;;;28.95;;
76745;SDS011;65671;49.976;20.038;2023-04-09T04:44:36;60.45;;;29.27;;
76745;SDS011;65671;49.976;20.038;2023-04-09T04:47:02;56.35;;;28.35;;
76745;SDS011;65671;49.976;20.038;2023-04-09T04:49:27;56.75;;;30.20;;
76745;SDS011;65671;49.976;20.038;2023-04-09T04:51:54;56.85;;;29.08;;
76745;SDS011;65671;49.976;20.038;2023-04-09T04:54:19;57.53;;;29.10;;
76745;SDS011;65671;49.976;20.038;2023-04-09T04:56:45;54.40;;;28.08;;
76745;SDS011;65671;49.976;20.038;2023-04-09T04:59:10;60.35;;;30.63;;
76745;SDS011;65671;49.976;20.038;2023-04-09T05:01:36;56.03;;;28.45;;
76745;SDS011;65671;49.976;20.038;2023-04-09T05:04:01;52.08;;;26.98;;
76745;SDS011;65671;49.976;20.038;2023-04-09T05:06:28;52.35;;;27.73;;
76745;SDS011;65671;49.976;20.038;2023-04-09T05:08:54;54.72;;;28.75;;
76745;SDS011;65671;49.976;20.038;2023-04-09T05:11:24;60.53;;;30.05;;
76745;SDS011;65671;49.976;20.038;2023-04-09T05:13:50;57.55;;;29.23;;
76745;SDS011;65671;49.976;20.038;2023-04-09T05:16:17;56.63;;;30.83;;
76745;SDS011;65671;49.976;20.038;2023-04-09T05:18:43;55.17;;;29.25;;
76745;SDS011;65671;49.976;20.038;2023-04-09T05:21:09;57.40;;;29.35;;
76745;SDS011;65671;49.976;20.038;2023-04-09T05:23:34;53.53;;;28.65;;
76745;SDS011;65671;49.976;20.038;2023-04-09T05:26:00;54.85;;;30.33;;
76745;SDS011;65671;49.976;20.038;2023-04-09T05:28:26;56.88;;;29.80;;
76745;SDS011;65671;49.976;20.038;2023-04-09T05:30:51;56.00;;;29.75;;
76745;SDS011;65671;49.976;20.038;2023-04-09T05:33:17;54.78;;;30.00;;
76745;SDS011;65671;49.976;20.038;2023-04-09T05:35:42;58.55;;;29.83;;
76745;SDS011;65671;49.976;20.038;2023-04-09T05:38:08;61.55;;;32.55;;
76745;SDS011;65671;49.976;20.038;2023-04-09T05:40:34;62.25;;;31.75;;
76745;SDS011;65671;49.976;20.038;2023-04-09T05:43:00;59.92;;;32.38;;
76745;SDS011;65671;49.976;20.038;2023-04-09T05:45:25;56.67;;;30.05;;
76745;SDS011;65671;49.976;20.038;2023-04-09T05:47:52;55.88;;;29.73;;
76745;SDS011;65671;49.976;20.038;2023-04-09T05:50:18;57.10;;;30.23;;
76745;SDS011;65671;49.976;20.038;2023-04-09T05:52:45;61.00;;;30.10;;
76745;SDS011;65671;49.976;20.038;2023-04-09T05:55:10;55.97;;;30.25;;
76745;SDS011;65671;49.976;20.038;2023-04-09T05:57:36;58.17;;;30.05;;
76745;SDS011;65671;49.976;20.038;2023-04-09T06:00:01;61.05;;;30.23;;
76745;SDS011;65671;49.976;20.038;2023-04-09T06:02:27;54.67;;;30.05;;
76745;SDS011;65671;49.976;20.038;2023-04-09T06:04:52;55.75;;;28.65;;
76745;SDS011;65671;49.976;20.038;2023-04-09T06:07:18;58.47;;;30.90;;
76745;SDS011;65671;49.976;20.038;2023-04-09T06:09:44;52.33;;;28.30;;
76745;SDS011;65671;49.976;20.038;2023-04-09T06:12:10;51.28;;;29.42;;
76745;SDS011;65671;49.976;20.038;2023-04-09T06:14:37;53.88;;;29.23;;
76745;SDS011;65671;49.976;20.038;2023-04-09T06:17:03;63.85;;;30.15;;
76745;SDS011;65671;49.976;20.038;2023-04-09T06:19:28;57.05;;;29.90;;
76745;SDS011;65671;49.976;20.038;2023-04-09T06:21:54;55.67;;;29.88;;
76745;SDS011;65671;49.976;20.038;2023-04-09T06:24:19;53.47;;;27.67;;
76745;SDS011;65671;49.976;20.038;2023-04-09T06:26:45;50.58;;;29.20;;
76745;SDS011;65671;49.976;20.038;2023-04-09T06:29:10;54.30;;;27.02;;
76745;SDS011;65671;49.976;20.038;2023-04-09T06:31:36;55.65;;;26.67;;
76745;SDS011;65671;49.976;20.038;2023-04-09T06:34:01;46.85;;;27.00;;
76745;SDS011;65671;49.976;20.038;2023-04-09T06:36:27;53.17;;;28.40;;
76745;SDS011;65671;49.976;20.038;2023-04-09T06:38:53;54.97;;;29.35;;
76745;SDS011;65671;49.976;20.038;2023-04-09T06:41:22;56.08;;;29.92;;
76745;SDS011;65671;49.976;20.038;2023-04-09T06:43:48;49.78;;;26.73;;
76745;SDS011;65671;49.976;20.038;2023-04-09T06:46:14;51.55;;;27.20;;
76745;SDS011;65671;49.976;20.038;2023-04-09T06:48:41;50.33;;;27.90;;
76745;SDS011;65671;49.976;20.038;2023-04-09T06:51:09;46.88;;;25.08;;
76745;SDS011;65671;49.976;20.038;2023-04-09T06:53:36;46.13;;;25.33;;
76745;SDS011;65671;49.976;20.038;2023-04-09T06:56:02;48.00;;;26.92;;
76745;SDS011;65671;49.976;20.038;2023-04-09T06:58:27;46.38;;;25.85;;
76745;SDS011;65671;49.976;20.038;2023-04-09T07:00:53;47.67;;;23.77;;
76745;SDS011;65671;49.976;20.038;2023-04-09T07:03:19;41.22;;;23.73;;
76745;SDS011;65671;49.976;20.038;2023-04-09T07:05:45;45.90;;;25.65;;
76745;SDS011;65671;49.976;20.038;2023-04-09T07:08:10;43.45;;;24.42;;
76745;SDS011;65671;49.976;20.038;2023-04-09T07:10:36;46.92;;;25.23;;
76745;SDS011;65671;49.976;20.038;2023-04-09T07:13:02;42.38;;;25.20;;
76745;SDS011;65671;49.976;20.038;2023-04-09T07:15:27;45.70;;;25.92;;
76745;SDS011;65671;49.976;20.038;2023-04-09T07:17:53;48.95;;;25.75;;
76745;SDS011;65671;49.976;20.038;2023-04-09T07:20:18;45.83;;;26.58;;
76745;SDS011;65671;49.976;20.038;2023-04-09T07:22:44;43.80;;;24.50;;
76745;SDS011;65671;49.976;20.038;2023-04-09T07:25:10;43.85;;;25.65;;
76745;SDS011;65671;49.976;20.038;2023-04-09T07:27:35;39.60;;;24.85;;
76745;SDS011;65671;49.976;20.038;2023-04-09T07:30:01;42.30;;;24.17;;
76745;SDS011;65671;49.976;20.038;2023-04-09T07:32:27;43.60;;;24.05;;
76745;SDS011;65671;49.976;20.038;2023-04-09T07:34:53;35.40;;;21.80;;
76745;SDS011;65671;49.976;20.038;2023-04-09T07:37:19;38.38;;;23.23;;
76745;SDS011;65671;49.976;20.038;2023-04-09T07:39:45;39.08;;;22.80;;
76745;SDS011;65671;49.976;20.038;2023-04-09T07:42:11;33.28;;;19.77;;
76745;SDS011;65671;49.976;20.038;2023-04-09T07:44:37;38.88;;;22.55;;
76745;SDS011;65671;49.976;20.038;2023-04-09T07:47:03;37.30;;;22.60;;
76745;SDS011;65671;49.976;20.038;2023-04-09T07:49:29;42.83;;;23.70;;
76745;SDS011;65671;49.976;20.038;2023-04-09T07:51:55;42.10;;;22.92;;
76745;SDS011;65671;49.976;20.038;2023-04-09T07:54:21;37.42;;;21.90;;
76745;SDS011;65671;49.976;20.038;2023-04-09T07:56:47;37.67;;;20.35;;
76745;SDS011;65671;49.976;20.038;2023-04-09T07:59:12;38.63;;;20.10;;
76745;SDS011;65671;49.976;20.038;2023-04-09T08:01:40;34.05;;;21.08;;
76745;SDS011;65671;49.976;20.038;2023-04-09T08:04:05;33.00;;;19.55;;
76745;SDS011;65671;49.976;20.038;2023-04-09T08:06:31;33.95;;;18.85;;
76745;SDS011;65671;49.976;20.038;2023-04-09T08:08:56;36.72;;;21.70;;
76745;SDS011;65671;49.976;20.038;2023-04-09T08:11:22;35.15;;;20.33;;
76745;SDS011;65671;49.976;20.038;2023-04-09T08:13:53;35.70;;;20.50;;
76745;SDS011;65671;49.976;20.038;2023-04-09T08:16:19;34.65;;;19.85;;
76745;SDS011;65671;49.976;20.038;2023-04-09T08:18:48;33.55;;;18.80;;
76745;SDS011;65671;49.976;20.038;2023-04-09T08:21:15;34.35;;;19.27;;
76745;SDS011;65671;49.976;20.038;2023-04-09T08:23:40;29.27;;;17.38;;
76745;SDS011;65671;49.976;20.038;2023-04-09T08:26:06;31.33;;;18.17;;
76745;SDS011;65671;49.976;20.038;2023-04-09T08:28:31;33.58;;;18.08;;
76745;SDS011;65671;49.976;20.038;2023-04-09T08:30:57;30.33;;;17.98;;
76745;SDS011;65671;49.976;20.038;2023-04-09T08:33:22;27.50;;;17.75;;
76745;SDS011;65671;49.976;20.038;2023-04-09T08:35:48;27.60;;;16.90;;
76745;SDS011;65671;49.976;20.038;2023-04-09T08:38:13;29.77;;;17.83;;
76745;SDS011;65671;49.976;20.038;2023-04-09T08:40:40;29.63;;;16.52;;
76745;SDS011;65671;49.976;20.038;2023-04-09T08:43:06;26.23;;;17.48;;
76745;SDS011;65671;49.976;20.038;2023-04-09T08:45:33;26.50;;;15.15;;
76745;SDS011;65671;49.976;20.038;2023-04-09T08:47:59;30.42;;;16.48;;
76745;SDS011;65671;49.976;20.038;2023-04-09T08:50:30;25.88;;;15.68;;
76745;SDS011;65671;49.976;20.038;2023-04-09T08:53:01;28.60;;;15.82;;
76745;SDS011;65671;49.976;20.038;2023-04-09T08:55:29;26.45;;;17.45;;
76745;SDS011;65671;49.976;20.038;2023-04-09T08:57:55;26.90;;;16.42;;
76745;SDS011;65671;49.976;20.038;2023-04-09T09:00:22;28.10;;;16.55;;
76745;SDS011;65671;49.976;20.038;2023-04-09T09:05:45;22.83;;;13.98;;
76745;SDS011;65671;49.976;20.038;2023-04-09T09:08:12;22.88;;;13.90;;
76745;SDS011;65671;49.976;20.038;2023-04-09T09:13:18;21.20;;;12.57;;
76745;SDS011;65671;49.976;20.038;2023-04-09T09:15:48;18.63;;;11.52;;
76745;SDS011;65671;49.976;20.038;2023-04-09T09:18:19;16.35;;;10.57;;
76745;SDS011;65671;49.976;20.038;2023-04-09T09:20:45;19.42;;;12.07;;
76745;SDS011;65671;49.976;20.038;2023-04-09T09:23:11;20.15;;;12.85;;
76745;SDS011;65671;49.976;20.038;2023-04-09T09:25:37;21.95;;;13.13;;
76745;SDS011;65671;49.976;20.038;2023-04-09T09:28:07;18.88;;;12.82;;
76745;SDS011;65671;49.976;20.038;2023-04-09T09:30:34;24.20;;;14.25;;
76745;SDS011;65671;49.976;20.038;2023-04-09T09:33:04;21.83;;;13.98;;
76745;SDS011;65671;49.976;20.038;2023-04-09T09:35:47;22.63;;;15.10;;
76745;SDS011;65671;49.976;20.038;2023-04-09T09:38:14;22.02;;;14.57;;
76745;SDS011;65671;49.976;20.038;2023-04-09T09:40:40;21.08;;;13.75;;
76745;SDS011;65671;49.976;20.038;2023-04-09T09:43:06;22.38;;;13.68;;
76745;SDS011;65671;49.976;20.038;2023-04-09T09:45:31;24.38;;;14.77;;
76745;SDS011;65671;49.976;20.038;2023-04-09T09:47:57;24.85;;;14.43;;
76745;SDS011;65671;49.976;20.038;2023-04-09T09:50:23;18.65;;;12.65;;
76745;SDS011;65671;49.976;20.038;2023-04-09T09:52:51;17.70;;;12.05;;
76745;SDS011;65671;49.976;20.038;2023-04-09T09:55:22;18.08;;;12.00;;
76745;SDS011;65671;49.976;20.038;2023-04-09T09:57:51;22.27;;;14.70;;
76745;SDS011;65671;49.976;20.038;2023-04-09T10:00:19;21.52;;;14.05;;
76745;SDS011;65671;49.976;20.038;2023-04-09T10:02:56;20.92;;;13.60;;
76745;SDS011;65671;49.976;20.038;2023-04-09T10:05:27;21.55;;;14.00;;
76745;SDS011;65671;49.976;20.038;2023-04-09T10:07:53;21.23;;;14.23;;
76745;SDS011;65671;49.976;20.038;2023-04-09T10:10:24;20.92;;;13.77;;
76745;SDS011;65671;49.976;20.038;2023-04-09T10:12:51;18.77;;;13.00;;
76745;SDS011;65671;49.976;20.038;2023-04-09T10:15:20;20.15;;;12.93;;
76745;SDS011;65671;49.976;20.038;2023-04-09T10:17:47;22.15;;;13.73;;
76745;SDS011;65671;49.976;20.038;2023-04-09T10:20:14;20.08;;;12.88;;
76745;SDS011;65671;49.976;20.038;2023-04-09T10:22:45;18.60;;;12.27;;
76745;SDS011;65671;49.976;20.038;2023-04-09T10:25:14;20.88;;;13.40;;
76745;SDS011;65671;49.976;20.038;2023-04-09T10:27:41;17.13;;;11.65;;
76745;SDS011;65671;49.976;20.038;2023-04-09T10:33:07;18.05;;;11.82;;
76745;SDS011;65671;49.976;20.038;2023-04-09T10:35:37;16.92;;;11.77;;
76745;SDS011;65671;49.976;20.038;2023-04-09T10:38:06;19.13;;;12.27;;
76745;SDS011;65671;49.976;20.038;2023-04-09T10:40:33;19.15;;;11.88;;
76745;SDS011;65671;49.976;20.038;2023-04-09T10:43:00;18.35;;;12.68;;
76745;SDS011;65671;49.976;20.038;2023-04-09T10:45:37;18.27;;;12.52;;
76745;SDS011;65671;49.976;20.038;2023-04-09T10:48:05;19.08;;;12.23;;
76745;SDS011;65671;49.976;20.038;2023-04-09T10:50:36;18.60;;;12.32;;
76745;SDS011;65671;49.976;20.038;2023-04-09T10:53:02;17.27;;;11.43;;
76745;SDS011;65671;49.976;20.038;2023-04-09T10:55:29;15.43;;;11.05;;
76745;SDS011;65671;49.976;20.038;2023-04-09T10:58:06;18.00;;;11.15;;
76745;SDS011;65671;49.976;20.038;2023-04-09T11:00:36;18.25;;;11.25;;
76745;SDS011;65671;49.976;20.038;2023-04-09T11:10:30;20.55;;;13.35;;
76745;SDS011;65671;49.976;20.038;2023-04-09T11:12:57;22.98;;;14.45;;
76745;SDS011;65671;49.976;20.038;2023-04-09T11:15:22;23.33;;;13.90;;
76745;SDS011;65671;49.976;20.038;2023-04-09T11:17:48;23.55;;;13.95;;
76745;SDS011;65671;49.976;20.038;2023-04-09T11:20:21;24.02;;;15.23;;
76745;SDS011;65671;49.976;20.038;2023-04-09T11:22:49;40.55;;;25.38;;
76745;SDS011;65671;49.976;20.038;2023-04-09T11:25:23;20.23;;;13.77;;
76745;SDS011;65671;49.976;20.038;2023-04-09T11:27:53;25.00;;;15.40;;
76745;SDS011;65671;49.976;20.038;2023-04-09T11:30:19;19.38;;;13.30;;
76745;SDS011;65671;49.976;20.038;2023-04-09T11:32:45;21.25;;;13.13;;
76745;SDS011;65671;49.976;20.038;2023-04-09T11:37:38;21.60;;;13.43;;
76745;SDS011;65671;49.976;20.038;2023-04-09T11:40:06;21.65;;;13.48;;
76745;SDS011;65671;49.976;20.038;2023-04-09T11:42:39;21.95;;;14.30;;
76745;SDS011;65671;49.976;20.038;2023-04-09T11:45:05;20.75;;;13.35;;
76745;SDS011;65671;49.976;20.038;2023-04-09T11:47:33;21.73;;;14.88;;
76745;SDS011;65671;49.976;20.038;2023-04-09T11:49:59;22.15;;;13.02;;
76745;SDS011;65671;49.976;20.038;2023-04-09T11:52:25;20.52;;;12.43;;
76745;SDS011;65671;49.976;20.038;2023-04-09T11:54:52;18.52;;;11.70;;
76745;SDS011;65671;49.976;20.038;2023-04-09T11:57:17;18.42;;;12.00;;
76745;SDS011;65671;49.976;20.038;2023-04-09T11:59:43;18.23;;;12.25;;
76745;SDS011;65671;49.976;20.038;2023-04-09T12:02:09;17.90;;;11.48;;
76745;SDS011;65671;49.976;20.038;2023-04-09T12:04:36;16.38;;;11.77;;
76745;SDS011;65671;49.976;20.038;2023-04-09T12:07:01;16.55;;;11.35;;
76745;SDS011;65671;49.976;20.038;2023-04-09T12:09:27;17.40;;;11.30;;
76745;SDS011;65671;49.976;20.038;2023-04-09T12:11:52;15.70;;;10.63;;
76745;SDS011;65671;49.976;20.038;2023-04-09T12:14:19;16.17;;;10.23;;
76745;SDS011;65671;49.976;20.038;2023-04-09T12:16:49;16.48;;;10.95;;
76745;SDS011;65671;49.976;20.038;2023-04-09T12:19:15;16.77;;;11.45;;
76745;SDS011;65671;49.976;20.038;2023-04-09T12:24:12;19.38;;;12.60;;
76745;SDS011;65671;49.976;20.038;2023-04-09T12:26:38;18.88;;;13.30;;
76745;SDS011;65671;49.976;20.038;2023-04-09T12:29:03;21.05;;;12.43;;
76745;SDS011;65671;49.976;20.038;2023-04-09T12:31:29;16.35;;;11.07;;
76745;SDS011;65671;49.976;20.038;2023-04-09T12:33:54;20.50;;;12.35;;
76745;SDS011;65671;49.976;20.038;2023-04-09T12:36:20;13.85;;;9.90;;
76745;SDS011;65671;49.976;20.038;2023-04-09T12:38:47;13.77;;;10.25;;
76745;SDS011;65671;49.976;20.038;2023-04-09T12:41:13;15.18;;;11.55;;
76745;SDS011;65671;49.976;20.038;2023-04-09T12:43:40;13.52;;;10.60;;
76745;SDS011;65671;49.976;20.038;2023-04-09T12:46:07;16.92;;;11.07;;
76745;SDS011;65671;49.976;20.038;2023-04-09T12:48:32;16.52;;;11.27;;
76745;SDS011;65671;49.976;20.038;2023-04-09T12:50:59;15.50;;;11.27;;
76745;SDS011;65671;49.976;20.038;2023-04-09T12:53:25;16.42;;;10.43;;
76745;SDS011;65671;49.976;20.038;2023-04-09T12:55:51;16.63;;;10.90;;
76745;SDS011;65671;49.976;20.038;2023-04-09T12:58:16;16.65;;;11.35;;
76745;SDS011;65671;49.976;20.038;2023-04-09T13:00:42;14.50;;;9.75;;
76745;SDS011;65671;49.976;20.038;2023-04-09T13:03:07;16.95;;;11.13;;
76745;SDS011;65671;49.976;20.038;2023-04-09T13:05:33;15.70;;;10.82;;
76745;SDS011;65671;49.976;20.038;2023-04-09T13:07:59;14.63;;;10.65;;
76745;SDS011;65671;49.976;20.038;2023-04-09T13:10:28;19.05;;;11.27;;
76745;SDS011;65671;49.976;20.038;2023-04-09T13:12:55;17.83;;;11.27;;
76745;SDS011;65671;49.976;20.038;2023-04-09T13:15:21;16.27;;;11.55;;
76745;SDS011;65671;49.976;20.038;2023-04-09T13:17:46;19.70;;;11.73;;
76745;SDS011;65671;49.976;20.038;2023-04-09T13:20:12;17.50;;;12.60;;
76745;SDS011;65671;49.976;20.038;2023-04-09T13:22:38;18.10;;;12.65;;
76745;SDS011;65671;49.976;20.038;2023-04-09T13:25:03;18.05;;;11.90;;
76745;SDS011;65671;49.976;20.038;2023-04-09T13:27:30;18.35;;;12.57;;
76745;SDS011;65671;49.976;20.038;2023-04-09T13:29:56;17.92;;;12.45;;
76745;SDS011;65671;49.976;20.038;2023-04-09T13:32:22;20.38;;;12.90;;
76745;SDS011;65671;49.976;20.038;2023-04-09T13:34:48;18.85;;;11.68;;
76745;SDS011;65671;49.976;20.038;2023-04-09T13:37:14;18.02;;;13.13;;
76745;SDS011;65671;49.976;20.038;2023-04-09T13:39:40;17.90;;;12.52;;
76745;SDS011;65671;49.976;20.038;2023-04-09T13:42:06;19.40;;;13.10;;
76745;SDS011;65671;49.976;20.038;2023-04-09T13:44:32;18.17;;;12.35;;
76745;SDS011;65671;49.976;20.038;2023-04-09T13:46:57;17.77;;;12.25;;
76745;SDS011;65671;49.976;20.038;2023-04-09T13:49:23;19.58;;;12.38;;
76745;SDS011;65671;49.976;20.038;2023-04-09T13:51:50;16.83;;;12.52;;
76745;SDS011;65671;49.976;20.038;2023-04-09T13:54:16;19.65;;;12.32;;
76745;SDS011;65671;49.976;20.038;2023-04-09T13:56:42;18.60;;;12.02;;
76745;SDS011;65671;49.976;20.038;2023-04-09T13:59:09;19.38;;;12.57;;
76745;SDS011;65671;49.976;20.038;2023-04-09T14:01:34;20.90;;;13.45;;
76745;SDS011;65671;49.976;20.038;2023-04-09T14:04:00;14.95;;;10.80;;
76745;SDS011;65671;49.976;20.038;2023-04-09T14:06:26;16.30;;;11.30;;
76745;SDS011;65671;49.976;20.038;2023-04-09T14:08:52;14.77;;;10.52;;
76745;SDS011;65671;49.976;20.038;2023-04-09T14:11:17;14.02;;;10.77;;
76745;SDS011;65671;49.976;20.038;2023-04-09T14:13:43;16.33;;;11.27;;
76745;SDS011;65671;49.976;20.038;2023-04-09T14:16:09;15.95;;;10.00;;
76745;SDS011;65671;49.976;20.038;2023-04-09T14:18:34;15.90;;;11.60;;
76745;SDS011;65671;49.976;20.038;2023-04-09T14:21:00;17.38;;;11.57;;
76745;SDS011;65671;49.976;20.038;2023-04-09T14:23:26;21.40;;;11.60;;
76745;SDS011;65671;49.976;20.038;2023-04-09T14:25:51;15.95;;;10.65;;
76745;SDS011;65671;49.976;20.038;2023-04-09T14:28:17;20.05;;;12.43;;
76745;SDS011;65671;49.976;20.038;2023-04-09T14:30:43;16.17;;;11.40;;
76745;SDS011;65671;49.976;20.038;2023-04-09T14:33:09;15.95;;;11.65;;
76745;SDS011;65671;49.976;20.038;2023-04-09T14:35:35;15.25;;;10.57;;
76745;SDS011;65671;49.976;20.038;2023-04-09T14:38:01;18.10;;;11.48;;
76745;SDS011;65671;49.976;20.038;2023-04-09T14:40:29;15.20;;;10.43;;